Emmett, Idaho
Current Conditions -  °F | °C
As of 6:15 PM on Sunday 23 Nov 2014 (Local Time) from KMAN Reporting Station
Overcast Overcast  
Wind Chill: 38°   Ceiling: 6500
Heat Index: 41°   Visibility: 10mi
Dew Point: 32°   Wind: 5mph
Humidity: 70%   Direction: 110°ESE
Pressure: 30.22"   Gusts: NA
Location:  43.87°N, 116.5°W
Report Text: KMAN 240115Z AUTO 11004KT 10SM FEW060 BKN065 OVC100 05/00 A3022 RMK AO1
Loading
Personal Weather Stations






























Interactive Weather Map New forecast layout! Learn more

10-Day Weather Forecast

Advertisements
Track Severe Weather on mobile